createdAt,value
2022-11-07T00:00:53.265Z,97417.03
2022-11-07T00:03:25.968Z,97409.72
2022-11-07T00:05:56.295Z,97417.03
2022-11-07T00:08:32.026Z,97404.94
2022-11-07T00:11:02.417Z,97414.69
2022-11-07T00:13:32.974Z,97416.97
2022-11-07T00:16:03.669Z,97411.16
2022-11-07T00:18:37.916Z,97428.25
2022-11-07T00:21:10.398Z,97434.25
2022-11-07T00:23:44.051Z,97438.09
2022-11-07T00:26:16.489Z,97444.19
2022-11-07T00:28:47.647Z,97440.47
2022-11-07T00:31:18.795Z,97443.88
2022-11-07T00:33:51.646Z,97450.19
2022-11-07T00:36:25.053Z,97454.56
2022-11-07T00:38:55.658Z,97459.06
2022-11-07T00:41:26.593Z,97471.94
2022-11-07T00:43:57.703Z,97469.66
2022-11-07T00:46:27.574Z,97484.25
2022-11-07T00:49:00.550Z,97478.63
2022-11-07T00:51:32.202Z,97475.09
2022-11-07T00:54:04.251Z,97486.50
2022-11-07T00:56:34.679Z,97480.84
2022-11-07T00:59:05.866Z,97471.50
2022-11-07T01:01:38.112Z,97474.72
2022-11-07T01:04:27.648Z,97471.88
2022-11-07T01:06:57.817Z,97465.47
2022-11-07T01:09:28.089Z,97462.25
2022-11-07T01:11:58.171Z,97455.94
2022-11-07T01:14:28.813Z,97461.34
2022-11-07T01:16:58.954Z,97447.72
2022-11-07T01:19:31.785Z,97455.56
2022-11-07T01:22:01.969Z,97456.22
2022-11-07T01:24:32.116Z,97485.13
2022-11-07T01:27:02.450Z,97462.69
2022-11-07T01:29:32.581Z,97469.09
2022-11-07T01:32:02.803Z,97470.97
2022-11-07T01:34:35.638Z,97465.81
2022-11-07T01:37:05.728Z,97466.31
2022-11-07T01:39:35.871Z,97465.19
2022-11-07T01:42:06.424Z,97467.94
2022-11-07T01:44:57.830Z,97458.78
2022-11-07T01:47:34.507Z,97463.16
2022-11-07T01:50:10.815Z,97463.72
2022-11-07T01:52:44.924Z,97463.34
2022-11-07T01:55:20.177Z,97457.19
2022-11-07T01:57:55.975Z,97468.59
2022-11-07T02:00:28.088Z,97460.81
2022-11-07T02:03:03.921Z,97466.03
2022-11-07T02:05:41.123Z,97466.09
2022-11-07T02:08:12.587Z,97468.28
2022-11-07T02:10:45.027Z,97457.69
2022-11-07T02:13:22.591Z,97459.72
2022-11-07T02:15:52.815Z,97456.94
2022-11-07T02:18:24.113Z,97452.34
2022-11-07T02:21:00.661Z,97450.16
2022-11-07T02:23:39.089Z,97453.78
2022-11-07T02:26:12.043Z,97453.78
2022-11-07T02:28:44.224Z,97453.78
2022-11-07T02:31:14.447Z,97454.56
2022-11-07T02:33:44.724Z,97449.81
2022-11-07T02:36:18.972Z,97452.88
2022-11-07T02:38:51.988Z,97441.09
2022-11-07T02:41:28.756Z,97429.59
2022-11-07T02:44:03.788Z,97445.78
2022-11-07T02:46:35.182Z,97443.47
2022-11-07T02:49:05.504Z,97441.66
2022-11-07T02:51:35.928Z,97458.28
2022-11-07T02:54:06.337Z,97452.31
2022-11-07T02:56:39.098Z,97447.28
2022-11-07T02:59:09.109Z,97454.09
2022-11-07T03:01:39.305Z,97454.88
2022-11-07T03:04:09.468Z,97461.81
2022-11-07T03:06:39.540Z,97457.81
2022-11-07T03:09:09.680Z,97465.81
2022-11-07T03:11:42.469Z,97467.59
2022-11-07T03:14:12.548Z,97463.50
2022-11-07T03:16:42.644Z,97479.16
2022-11-07T03:19:12.688Z,97474.66
2022-11-07T03:21:42.798Z,97488.47
2022-11-07T03:24:12.909Z,97499.06
2022-11-07T03:26:45.780Z,97506.53
2022-11-07T03:29:16.044Z,97498.19
2022-11-07T03:31:46.061Z,97519.50
2022-11-07T03:34:16.321Z,97513.13
2022-11-07T03:36:46.379Z,97523.84
2022-11-07T03:39:19.470Z,97516.19
2022-11-07T03:41:54.449Z,97525.84
2022-11-07T03:44:24.771Z,97519.53
2022-11-07T03:46:54.989Z,97507.69
2022-11-07T03:49:25.050Z,97516.09
2022-11-07T03:51:55.051Z,97526.94
2022-11-07T03:54:25.118Z,97538.97
2022-11-07T03:56:58.020Z,97520.84
2022-11-07T03:59:28.775Z,97521.19
2022-11-07T04:01:59.236Z,97541.34
2022-11-07T04:04:29.577Z,97535.88
2022-11-07T04:06:59.709Z,97555.41
2022-11-07T04:09:29.804Z,97529.47
2022-11-07T04:12:14.955Z,97534.53
2022-11-07T04:14:57.387Z,97540.34
2022-11-07T04:17:28.362Z,97535.31
2022-11-07T04:19:59.935Z,97546.34
2022-11-07T04:22:30.730Z,97568.28
2022-11-07T04:25:01.063Z,97570.59
2022-11-07T04:27:43.090Z,97570.44
2022-11-07T04:30:26.742Z,97567.81
2022-11-07T04:32:59.415Z,97578.75
2022-11-07T04:35:32.178Z,97573.97
2022-11-07T04:38:03.122Z,97567.19
2022-11-07T04:40:33.879Z,97583.03
2022-11-07T04:43:09.451Z,97580.88
2022-11-07T04:45:40.387Z,97581.84
2022-11-07T04:48:12.918Z,97575.25
2022-11-07T04:50:43.663Z,97584.47
2022-11-07T04:53:16.261Z,97582.03
2022-11-07T04:55:47.322Z,97581.84
2022-11-07T04:58:20.237Z,97580.47
2022-11-07T05:00:50.494Z,97578.38
2022-11-07T05:03:20.586Z,97581.72
2022-11-07T05:05:50.838Z,97581.72
2022-11-07T05:08:20.929Z,97581.53
2022-11-07T05:10:51.404Z,97575.88
2022-11-07T05:13:27.404Z,97575.88
2022-11-07T05:15:57.541Z,97590.78
2022-11-07T05:18:27.584Z,97592.44
2022-11-07T05:20:58.621Z,97588.47
2022-11-07T05:23:27.953Z,97600.47
2022-11-07T05:25:58.453Z,97605.81
2022-11-07T05:28:39.049Z,97607.78
2022-11-07T05:31:10.818Z,97614.69
2022-11-07T05:33:40.985Z,97619.47
2022-11-07T05:36:16.958Z,97614.13
2022-11-07T05:38:49.091Z,97618.25
2022-11-07T05:41:20.933Z,97620.06
2022-11-07T05:43:53.644Z,97612.25
2022-11-07T05:46:23.660Z,97610.56
2022-11-07T05:48:59.730Z,97611.16
2022-11-07T05:51:31.126Z,97608.06
2022-11-07T05:54:01.217Z,97607.00
2022-11-07T05:56:31.269Z,97613.44
2022-11-07T05:59:03.950Z,97612.56
2022-11-07T06:01:34.420Z,97614.56
2022-11-07T06:04:06.718Z,97611.66
2022-11-07T06:06:36.998Z,97616.13
2022-11-07T06:09:07.236Z,97622.09
2022-11-07T06:11:37.244Z,97610.28
2022-11-07T06:14:09.915Z,97623.47
2022-11-07T06:16:40.481Z,97611.84
2022-11-07T06:19:10.585Z,97618.41
2022-11-07T06:21:41.413Z,97620.25
2022-11-07T06:24:15.374Z,97633.75
2022-11-07T06:26:45.818Z,97634.19
2022-11-07T06:29:18.652Z,97636.63
2022-11-07T06:31:48.830Z,97649.50
2022-11-07T06:34:18.864Z,97647.00
2022-11-07T06:36:58.647Z,97647.31
2022-11-07T06:39:31.891Z,97645.78
2022-11-07T06:42:02.030Z,97645.44
2022-11-07T06:44:34.847Z,97660.47
2022-11-07T06:47:04.975Z,97648.56
2022-11-07T06:49:35.009Z,97665.94
2022-11-07T06:52:05.511Z,97661.47
2022-11-07T06:54:35.693Z,97665.44
2022-11-07T06:57:05.735Z,97668.31
2022-11-07T06:59:38.432Z,97670.41
2022-11-07T07:02:08.748Z,97680.28
2022-11-07T07:04:39.051Z,97683.91
2022-11-07T07:07:09.757Z,97683.94
2022-11-07T07:09:40.029Z,97678.38
2022-11-07T07:12:13.552Z,97687.34
2022-11-07T07:14:46.225Z,97682.22
2022-11-07T07:17:16.348Z,97691.53
2022-11-07T07:19:46.391Z,97693.91
2022-11-07T07:22:16.654Z,97691.63
2022-11-07T07:24:48.260Z,97701.53
2022-11-07T07:27:20.458Z,97689.34
2022-11-07T07:29:53.683Z,97687.34
2022-11-07T07:32:25.259Z,97681.63
2022-11-07T07:34:55.627Z,97682.88
2022-11-07T07:37:25.701Z,97689.69
2022-11-07T07:39:55.839Z,97683.31
2022-11-07T07:42:26.103Z,97676.25
2022-11-07T07:45:00.168Z,97683.66
2022-11-07T07:47:30.408Z,97683.06
2022-11-07T07:50:00.460Z,97679.50
2022-11-07T07:52:30.547Z,97679.34
2022-11-07T07:55:00.647Z,97678.72
2022-11-07T07:57:30.751Z,97684.91
2022-11-07T08:00:03.474Z,97699.38
2022-11-07T08:02:43.693Z,97690.44
2022-11-07T08:05:14.824Z,97684.53
2022-11-07T08:07:49.035Z,97685.50
2022-11-07T08:10:40.896Z,97692.13
2022-11-07T08:13:10.958Z,97693.19
2022-11-07T08:15:43.834Z,97692.44
2022-11-07T08:18:13.955Z,97700.00
2022-11-07T08:20:45.000Z,97699.38
2022-11-07T08:23:16.990Z,97701.00
2022-11-07T08:25:53.896Z,97695.97
2022-11-07T08:28:27.801Z,97692.25
2022-11-07T08:31:03.391Z,97706.16
2022-11-07T08:33:33.665Z,97699.41
2022-11-07T08:36:06.329Z,97720.09
2022-11-07T08:38:39.097Z,97711.81
2022-11-07T08:41:09.508Z,97700.16
2022-11-07T08:43:39.801Z,97696.72
2022-11-07T08:46:12.690Z,97693.91
2022-11-07T08:48:42.922Z,97699.69
2022-11-07T08:51:13.231Z,97720.78
2022-11-07T08:53:43.477Z,97723.13
2022-11-07T08:56:14.013Z,97720.78
2022-11-07T08:58:44.709Z,97715.94
2022-11-07T09:01:17.732Z,97726.50
2022-11-07T09:03:54.786Z,97722.75
2022-11-07T09:06:27.926Z,97707.03
2022-11-07T09:08:58.188Z,97700.16
2022-11-07T09:11:28.607Z,97704.47
2022-11-07T09:13:59.085Z,97711.22
2022-11-07T09:16:32.052Z,97709.34
2022-11-07T09:19:02.223Z,97707.53
2022-11-07T09:21:32.360Z,97714.34
2022-11-07T09:24:02.673Z,97716.16
2022-11-07T09:26:32.843Z,97717.38
2022-11-07T09:29:02.975Z,97724.59
2022-11-07T09:31:36.376Z,97721.09
2022-11-07T09:34:07.528Z,97719.94
2022-11-07T09:36:37.723Z,97730.75
2022-11-07T09:39:08.024Z,97735.78
2022-11-07T09:41:53.757Z,97739.16
2022-11-07T09:44:43.605Z,97760.47
2022-11-07T09:47:23.516Z,97763.16
2022-11-07T09:49:56.815Z,97743.94
2022-11-07T09:52:41.235Z,97755.00
2022-11-07T09:55:20.308Z,97744.47
2022-11-07T09:57:52.430Z,97754.53
2022-11-07T10:00:25.268Z,97747.56
2022-11-07T10:03:01.907Z,97754.53
2022-11-07T10:05:43.472Z,97759.16
2022-11-07T10:08:22.303Z,97749.81
2022-11-07T10:10:59.426Z,97753.16
2022-11-07T10:13:55.308Z,97765.72
2022-11-07T10:16:39.014Z,97762.75
2022-11-07T10:19:31.180Z,97762.31
2022-11-07T10:22:20.520Z,97751.75
2022-11-07T10:25:08.868Z,97752.31
2022-11-07T10:27:41.419Z,97749.91
2022-11-07T10:30:20.962Z,97737.50
2022-11-07T10:33:01.315Z,97745.25
2022-11-07T10:35:37.271Z,97744.09
2022-11-07T10:38:22.678Z,97751.44
2022-11-07T10:40:54.529Z,97739.41
2022-11-07T10:43:35.746Z,97741.69
2022-11-07T10:46:07.198Z,97743.56
2022-11-07T10:48:38.282Z,97731.09
2022-11-07T10:51:11.168Z,97727.34
2022-11-07T10:53:47.435Z,97731.25
2022-11-07T10:56:22.511Z,97725.16
2022-11-07T10:58:52.717Z,97730.59
2022-11-07T11:01:27.913Z,97734.22
2022-11-07T11:03:58.225Z,97733.31
2022-11-07T11:06:34.061Z,97734.56
2022-11-07T11:09:17.461Z,97734.56
2022-11-07T11:11:53.970Z,97738.53
2022-11-07T11:14:24.751Z,97727.69
2022-11-07T11:16:57.719Z,97722.84
2022-11-07T11:19:30.845Z,97716.75
2022-11-07T11:22:08.580Z,97727.81
2022-11-07T11:24:40.149Z,97717.53
2022-11-07T11:27:17.986Z,97721.66
2022-11-07T11:29:54.706Z,97711.81
2022-11-07T11:32:30.346Z,97710.03
2022-11-07T11:35:16.806Z,97705.50
2022-11-07T11:37:58.117Z,97706.00
2022-11-07T11:40:28.746Z,97698.06
2022-11-07T11:43:07.845Z,97706.91
2022-11-07T11:45:46.750Z,97703.59
2022-11-07T11:48:27.454Z,97702.63
2022-11-07T11:51:03.350Z,97710.53
2022-11-07T11:53:36.378Z,97717.13
2022-11-07T11:56:30.163Z,97721.81
2022-11-07T11:59:21.328Z,97717.72
2022-11-07T12:02:01.926Z,97714.59
2022-11-07T12:04:58.372Z,97727.72
2022-11-07T12:07:49.739Z,97719.84
2022-11-07T12:10:30.632Z,97711.72
2022-11-07T12:13:12.414Z,97721.84
2022-11-07T12:16:00.065Z,97709.34
2022-11-07T12:18:41.500Z,97710.88
2022-11-07T12:21:26.881Z,97723.69
2022-11-07T12:24:28.358Z,97712.28
2022-11-07T12:27:13.091Z,97712.41
2022-11-07T12:30:07.264Z,97719.09
2022-11-07T12:32:53.342Z,97720.16
2022-11-07T12:35:43.860Z,97717.41
2022-11-07T12:38:45.647Z,97717.63
2022-11-07T12:41:29.367Z,97715.13
2022-11-07T12:44:20.825Z,97721.25
2022-11-07T12:46:56.746Z,97723.25
2022-11-07T12:50:01.968Z,97719.47
2022-11-07T12:53:02.794Z,97718.41
2022-11-07T12:55:42.081Z,97714.31
2022-11-07T12:58:21.295Z,97709.78
2022-11-07T13:00:54.995Z,97714.38
2022-11-07T13:03:53.905Z,97717.34
2022-11-07T13:06:32.580Z,97718.38
2022-11-07T13:09:20.841Z,97708.53
2022-11-07T13:12:00.692Z,97721.22
2022-11-07T13:14:37.191Z,97721.22
2022-11-07T13:17:18.062Z,97718.38
2022-11-07T13:19:49.975Z,97714.53
2022-11-07T13:22:27.175Z,97709.53
2022-11-07T13:25:15.983Z,97719.16
2022-11-07T13:27:50.401Z,97711.03
2022-11-07T13:30:29.329Z,97723.97
2022-11-07T13:33:03.342Z,97723.16
2022-11-07T13:35:35.558Z,97717.63
2022-11-07T13:38:13.608Z,97714.69
2022-11-07T13:40:49.625Z,97713.22
2022-11-07T13:43:23.909Z,97716.22
2022-11-07T13:45:58.431Z,97708.13
2022-11-07T13:48:35.508Z,97711.22
2022-11-07T13:51:11.768Z,97719.78
2022-11-07T13:53:55.057Z,97712.94
2022-11-07T13:56:35.736Z,97711.97
2022-11-07T13:59:08.825Z,97727.94
2022-11-07T14:01:49.318Z,97723.66
2022-11-07T14:04:25.016Z,97725.69
2022-11-07T14:07:00.542Z,97727.22
2022-11-07T14:09:32.238Z,97732.59
2022-11-07T14:12:02.441Z,97729.81
2022-11-07T14:14:32.960Z,97733.13
2022-11-07T14:17:03.502Z,97735.16
2022-11-07T14:19:36.374Z,97729.09
2022-11-07T14:22:09.805Z,97736.97
2022-11-07T14:24:55.381Z,97732.38
2022-11-07T14:27:27.427Z,97727.56
2022-11-07T14:30:00.533Z,97718.88
2022-11-07T14:32:32.096Z,97724.91
2022-11-07T14:35:11.115Z,97732.47
2022-11-07T14:37:41.280Z,97737.44
2022-11-07T14:40:14.515Z,97740.69
2022-11-07T14:42:47.785Z,97736.28
2022-11-07T14:45:46.850Z,97741.84
2022-11-07T14:48:15.310Z,97732.41
2022-11-07T14:50:50.141Z,97732.56
2022-11-07T14:53:25.570Z,97732.13
2022-11-07T14:55:58.104Z,97734.91
2022-11-07T14:58:31.352Z,97727.72
2022-11-07T15:01:14.270Z,97723.56
2022-11-07T15:03:57.346Z,97718.19
2022-11-07T15:06:36.220Z,97720.78
2022-11-07T15:09:09.813Z,97721.75
2022-11-07T15:11:41.434Z,97711.59
2022-11-07T15:14:26.222Z,97718.59
2022-11-07T15:16:58.611Z,97727.03
2022-11-07T15:19:29.618Z,97721.69
2022-11-07T15:22:03.463Z,97727.31
2022-11-07T15:24:39.196Z,97735.00
2022-11-07T15:27:22.934Z,97732.47
2022-11-07T15:29:56.084Z,97741.47
2022-11-07T15:32:29.182Z,97741.47
2022-11-07T15:35:17.348Z,97738.69
2022-11-07T15:38:01.327Z,97738.94
2022-11-07T15:40:33.018Z,97733.28
2022-11-07T15:43:03.396Z,97738.81
2022-11-07T15:45:34.018Z,97742.06
2022-11-07T15:48:04.358Z,97735.63
2022-11-07T15:50:44.277Z,97729.81
2022-11-07T15:53:23.931Z,97743.09
2022-11-07T15:55:56.229Z,97735.81
2022-11-07T15:58:29.883Z,97740.72
2022-11-07T16:01:01.495Z,97751.41
2022-11-07T16:03:31.826Z,97747.22
2022-11-07T16:06:04.173Z,97747.91
2022-11-07T16:08:37.960Z,97754.00
2022-11-07T16:11:11.632Z,97750.84
2022-11-07T16:13:42.395Z,97754.03
2022-11-07T16:16:19.116Z,97751.25
2022-11-07T16:18:51.233Z,97758.06
2022-11-07T16:21:22.053Z,97764.19
2022-11-07T16:23:55.382Z,97759.09
2022-11-07T16:26:32.059Z,97757.31
2022-11-07T16:29:02.353Z,97754.31
2022-11-07T16:31:32.648Z,97760.41
2022-11-07T16:34:02.849Z,97752.38
2022-11-07T16:36:35.540Z,97754.66
2022-11-07T16:39:10.785Z,97757.38
2022-11-07T16:41:40.935Z,97766.59
2022-11-07T16:44:11.124Z,97760.00
2022-11-07T16:46:41.405Z,97770.69
2022-11-07T16:49:17.777Z,97775.16
2022-11-07T16:51:47.901Z,97774.31
2022-11-07T16:54:20.580Z,97780.16
2022-11-07T16:56:51.573Z,97781.56
2022-11-07T16:59:24.967Z,97789.06
2022-11-07T17:01:57.748Z,97788.16
2022-11-07T17:04:28.230Z,97782.94
2022-11-07T17:06:58.389Z,97776.06
2022-11-07T17:09:31.088Z,97791.56
2022-11-07T17:12:01.393Z,97778.22
2022-11-07T17:14:31.488Z,97780.03
2022-11-07T17:17:01.755Z,97786.00
2022-11-07T17:19:32.012Z,97789.00
2022-11-07T17:22:03.193Z,97789.97
2022-11-07T17:24:36.710Z,97796.63
2022-11-07T17:27:21.607Z,97793.56
2022-11-07T17:29:52.918Z,97805.22
2022-11-07T17:32:23.666Z,97799.13
2022-11-07T17:35:17.828Z,97806.00
2022-11-07T17:37:43.994Z,97803.03
2022-11-07T17:40:21.625Z,97802.41
2022-11-07T17:42:51.777Z,97802.69
2022-11-07T17:45:22.021Z,97809.91
2022-11-07T17:47:52.377Z,97806.34
2022-11-07T17:50:24.182Z,97799.69
2022-11-07T17:52:54.722Z,97808.31
2022-11-07T17:55:27.690Z,97804.47
2022-11-07T17:57:57.865Z,97806.19
2022-11-07T18:00:29.621Z,97791.28
2022-11-07T18:02:59.980Z,97800.03
2022-11-07T18:05:45.349Z,97792.19
2022-11-07T18:08:25.287Z,97799.13
2022-11-07T18:11:09.294Z,97790.44
2022-11-07T18:13:39.668Z,97793.34
2022-11-07T18:16:11.253Z,97787.25
2022-11-07T18:18:41.446Z,97790.72
2022-11-07T18:21:11.967Z,97786.31
2022-11-07T18:23:44.670Z,97790.69
2022-11-07T18:26:25.348Z,97781.00
2022-11-07T18:28:58.337Z,97785.72
2022-11-07T18:31:28.552Z,97788.22
2022-11-07T18:34:00.374Z,97783.16
2022-11-07T18:36:31.567Z,97786.97
2022-11-07T18:39:05.021Z,97778.56
2022-11-07T18:41:38.228Z,97791.16
2022-11-07T18:44:09.600Z,97785.59
2022-11-07T18:46:40.685Z,97784.28
2022-11-07T18:49:10.709Z,97785.59
2022-11-07T18:51:41.207Z,97779.09
2022-11-07T18:54:13.792Z,97782.88
2022-11-07T18:56:46.853Z,97780.94
2022-11-07T18:59:17.003Z,97774.59
2022-11-07T19:01:47.359Z,97775.84
2022-11-07T19:04:17.619Z,97781.47
2022-11-07T19:06:58.510Z,97778.91
2022-11-07T19:09:31.767Z,97775.56
2022-11-07T19:12:04.557Z,97777.88
2022-11-07T19:14:35.305Z,97779.03
2022-11-07T19:17:05.522Z,97778.31
2022-11-07T19:19:36.475Z,97777.50
2022-11-07T19:22:06.590Z,97788.16
2022-11-07T19:24:37.355Z,97790.75
2022-11-07T19:27:11.324Z,97784.00
2022-11-07T19:29:41.740Z,97787.38
2022-11-07T19:32:12.611Z,97786.38
2022-11-07T19:34:42.732Z,97787.56
2022-11-07T19:37:12.820Z,97786.59
2022-11-07T19:39:43.012Z,97786.94
2022-11-07T19:42:15.760Z,97791.94
2022-11-07T19:44:50.448Z,97786.59
2022-11-07T19:47:21.815Z,97790.81
2022-11-07T19:49:52.155Z,97801.97
2022-11-07T19:52:22.428Z,97798.50
2022-11-07T19:54:53.457Z,97798.56
2022-11-07T19:57:26.272Z,97804.63
2022-11-07T19:59:56.408Z,97793.00
2022-11-07T20:02:32.926Z,97796.13
2022-11-07T20:05:03.912Z,97801.50
2022-11-07T20:07:34.191Z,97807.94
2022-11-07T20:10:04.573Z,97808.09
2022-11-07T20:12:37.545Z,97805.31
2022-11-07T20:15:09.460Z,97804.31
2022-11-07T20:17:39.567Z,97803.56
2022-11-07T20:20:13.838Z,97812.06
2022-11-07T20:22:48.265Z,97800.25
2022-11-07T20:25:18.648Z,97815.88
2022-11-07T20:27:51.340Z,97821.13
2022-11-07T20:30:21.697Z,97816.56
2022-11-07T20:32:51.996Z,97821.06
2022-11-07T20:35:22.239Z,97812.53
2022-11-07T20:37:52.268Z,97814.78
2022-11-07T20:40:27.968Z,97812.81
2022-11-07T20:43:02.995Z,97814.78
2022-11-07T20:45:33.250Z,97809.88
2022-11-07T20:48:03.366Z,97813.16
2022-11-07T20:50:35.642Z,97812.41
2022-11-07T20:53:08.838Z,97813.72
2022-11-07T20:55:42.749Z,97813.66
2022-11-07T20:58:15.710Z,97819.22
2022-11-07T21:00:47.279Z,97823.78
2022-11-07T21:03:18.495Z,97823.38
2022-11-07T21:05:49.026Z,97819.91
2022-11-07T21:08:19.097Z,97824.91
2022-11-07T21:10:52.884Z,97824.69
2022-11-07T21:13:25.850Z,97826.69
2022-11-07T21:15:55.908Z,97813.72
2022-11-07T21:18:26.138Z,97820.94
2022-11-07T21:20:56.218Z,97807.88
2022-11-07T21:23:27.080Z,97816.84
2022-11-07T21:25:57.627Z,97808.94
2022-11-07T21:28:30.403Z,97806.84
2022-11-07T21:31:04.916Z,97812.66
2022-11-07T21:33:35.465Z,97810.41
2022-11-07T21:36:05.757Z,97811.72
2022-11-07T21:38:35.974Z,97816.44
2022-11-07T21:41:08.403Z,97815.56
2022-11-07T21:43:41.327Z,97813.66
2022-11-07T21:46:14.254Z,97807.53
2022-11-07T21:48:45.838Z,97806.66
2022-11-07T21:51:18.411Z,97803.38
2022-11-07T21:53:49.760Z,97810.09
2022-11-07T21:56:23.947Z,97809.56
2022-11-07T21:58:59.625Z,97809.03
2022-11-07T22:01:35.480Z,97806.56
2022-11-07T22:04:09.076Z,97799.59
2022-11-07T22:06:43.707Z,97802.75
2022-11-07T22:09:17.963Z,97795.13
2022-11-07T22:11:48.373Z,97796.84
2022-11-07T22:14:25.751Z,97798.53
2022-11-07T22:16:59.105Z,97795.34
2022-11-07T22:19:29.609Z,97799.94
2022-11-07T22:21:59.762Z,97798.22
2022-11-07T22:24:29.967Z,97799.47
2022-11-07T22:27:01.147Z,97806.00
2022-11-07T22:29:34.071Z,97806.28
2022-11-07T22:32:05.204Z,97805.31
2022-11-07T22:34:35.255Z,97803.78
2022-11-07T22:37:05.376Z,97810.59
2022-11-07T22:39:35.436Z,97815.25
2022-11-07T22:42:05.987Z,97814.25
2022-11-07T22:44:38.900Z,97817.88
2022-11-07T22:47:09.000Z,97809.88
2022-11-07T22:49:39.034Z,97814.47
2022-11-07T22:52:09.121Z,97811.72
2022-11-07T22:54:39.430Z,97812.72
2022-11-07T22:57:13.001Z,97809.63
2022-11-07T22:59:48.136Z,97815.44
2022-11-07T23:02:18.498Z,97817.97
2022-11-07T23:04:48.756Z,97814.13
2022-11-07T23:07:18.797Z,97817.44
2022-11-07T23:09:48.945Z,97823.59
2022-11-07T23:12:19.005Z,97812.47
2022-11-07T23:14:51.936Z,97822.47
2022-11-07T23:17:22.080Z,97816.63
2022-11-07T23:19:55.870Z,97820.28
2022-11-07T23:22:31.213Z,97814.16
2022-11-07T23:25:02.591Z,97823.19
2022-11-07T23:27:32.798Z,97821.38
2022-11-07T23:30:05.529Z,97813.78
2022-11-07T23:32:35.654Z,97807.59
2022-11-07T23:35:05.728Z,97807.88
2022-11-07T23:37:35.761Z,97811.03
2022-11-07T23:40:05.993Z,97815.56
2022-11-07T23:42:36.155Z,97813.56
2022-11-07T23:45:22.589Z,97802.44
2022-11-07T23:48:05.185Z,97807.03
2022-11-07T23:50:47.684Z,97802.44
2022-11-07T23:53:29.979Z,97803.69
2022-11-07T23:56:00.274Z,97802.63
2022-11-07T23:58:42.808Z,97808.69
